sensor_id;sensor_type;location;lat;lon;timestamp;P1;durP1;ratioP1;P2;durP2;ratioP2
52412;SDS011;38339;53.234;6.578;2022-08-01T00:00:11;7.70;;;5.00;;
52412;SDS011;38339;53.234;6.578;2022-08-01T00:02:37;7.07;;;5.18;;
52412;SDS011;38339;53.234;6.578;2022-08-01T00:05:03;5.43;;;4.20;;
52412;SDS011;38339;53.234;6.578;2022-08-01T00:07:32;9.07;;;5.55;;
52412;SDS011;38339;53.234;6.578;2022-08-01T00:09:59;9.00;;;5.00;;
52412;SDS011;38339;53.234;6.578;2022-08-01T00:12:25;8.45;;;4.85;;
52412;SDS011;38339;53.234;6.578;2022-08-01T00:14:51;14.77;;;5.30;;
52412;SDS011;38339;53.234;6.578;2022-08-01T00:17:17;8.18;;;5.20;;
52412;SDS011;38339;53.234;6.578;2022-08-01T00:19:42;11.93;;;5.30;;
52412;SDS011;38339;53.234;6.578;2022-08-01T00:22:08;8.52;;;5.30;;
52412;SDS011;38339;53.234;6.578;2022-08-01T00:24:34;8.48;;;5.20;;
52412;SDS011;38339;53.234;6.578;2022-08-01T00:26:59;7.32;;;4.85;;
52412;SDS011;38339;53.234;6.578;2022-08-01T00:29:25;8.68;;;5.93;;
52412;SDS011;38339;53.234;6.578;2022-08-01T00:31:51;12.05;;;6.07;;
52412;SDS011;38339;53.234;6.578;2022-08-01T00:34:17;7.97;;;5.45;;
52412;SDS011;38339;53.234;6.578;2022-08-01T00:36:42;9.25;;;5.50;;
52412;SDS011;38339;53.234;6.578;2022-08-01T00:39:08;7.50;;;5.63;;
52412;SDS011;38339;53.234;6.578;2022-08-01T00:41:34;8.20;;;5.20;;
52412;SDS011;38339;53.234;6.578;2022-08-01T00:44:02;10.30;;;6.05;;
52412;SDS011;38339;53.234;6.578;2022-08-01T00:46:29;8.95;;;5.57;;
52412;SDS011;38339;53.234;6.578;2022-08-01T00:48:54;8.55;;;5.30;;
52412;SDS011;38339;53.234;6.578;2022-08-01T00:51:20;9.02;;;5.43;;
52412;SDS011;38339;53.234;6.578;2022-08-01T00:53:47;8.40;;;5.03;;
52412;SDS011;38339;53.234;6.578;2022-08-01T00:56:13;9.35;;;5.53;;
52412;SDS011;38339;53.234;6.578;2022-08-01T00:58:39;5.35;;;4.43;;
52412;SDS011;38339;53.234;6.578;2022-08-01T01:01:05;6.68;;;4.47;;
52412;SDS011;38339;53.234;6.578;2022-08-01T01:03:30;9.57;;;4.60;;
52412;SDS011;38339;53.234;6.578;2022-08-01T01:15:29;10.30;;;3.88;;
52412;SDS011;38339;53.234;6.578;2022-08-01T01:17:45;5.70;;;3.47;;
52412;SDS011;38339;53.234;6.578;2022-08-01T01:20:27;8.65;;;3.95;;
52412;SDS011;38339;53.234;6.578;2022-08-01T01:28:34;10.07;;;3.35;;
52412;SDS011;38339;53.234;6.578;2022-08-01T01:31:12;8.70;;;3.50;;
52412;SDS011;38339;53.234;6.578;2022-08-01T01:33:41;8.85;;;3.30;;
52412;SDS011;38339;53.234;6.578;2022-08-01T01:36:09;8.85;;;3.85;;
52412;SDS011;38339;53.234;6.578;2022-08-01T01:38:37;7.47;;;3.50;;
52412;SDS011;38339;53.234;6.578;2022-08-01T01:41:07;9.65;;;3.67;;
52412;SDS011;38339;53.234;6.578;2022-08-01T01:43:35;11.05;;;3.70;;
52412;SDS011;38339;53.234;6.578;2022-08-01T01:46:02;8.52;;;3.47;;
52412;SDS011;38339;53.234;6.578;2022-08-01T01:48:29;10.85;;;3.92;;
52412;SDS011;38339;53.234;6.578;2022-08-01T01:50:57;8.45;;;3.35;;
52412;SDS011;38339;53.234;6.578;2022-08-01T01:53:25;8.25;;;3.50;;
52412;SDS011;38339;53.234;6.578;2022-08-01T01:55:53;12.73;;;3.63;;
52412;SDS011;38339;53.234;6.578;2022-08-01T01:58:20;10.32;;;3.25;;
52412;SDS011;38339;53.234;6.578;2022-08-01T02:00:48;7.05;;;2.70;;
52412;SDS011;38339;53.234;6.578;2022-08-01T02:03:16;8.65;;;2.95;;
52412;SDS011;38339;53.234;6.578;2022-08-01T02:05:43;9.93;;;3.22;;
52412;SDS011;38339;53.234;6.578;2022-08-01T02:08:10;9.13;;;2.88;;
52412;SDS011;38339;53.234;6.578;2022-08-01T02:10:39;7.25;;;2.88;;
52412;SDS011;38339;53.234;6.578;2022-08-01T02:13:06;9.52;;;2.83;;
52412;SDS011;38339;53.234;6.578;2022-08-01T02:15:32;7.28;;;3.05;;
52412;SDS011;38339;53.234;6.578;2022-08-01T02:18:03;6.55;;;2.88;;
52412;SDS011;38339;53.234;6.578;2022-08-01T02:20:31;8.25;;;2.90;;
52412;SDS011;38339;53.234;6.578;2022-08-01T02:23:05;10.02;;;2.95;;
52412;SDS011;38339;53.234;6.578;2022-08-01T02:25:39;10.20;;;3.13;;
52412;SDS011;38339;53.234;6.578;2022-08-01T02:28:13;15.40;;;3.25;;
52412;SDS011;38339;53.234;6.578;2022-08-01T02:30:44;12.30;;;3.40;;
52412;SDS011;38339;53.234;6.578;2022-08-01T02:33:15;9.23;;;3.58;;
52412;SDS011;38339;53.234;6.578;2022-08-01T02:35:48;11.48;;;3.53;;
52412;SDS011;38339;53.234;6.578;2022-08-01T02:38:20;12.80;;;4.18;;
52412;SDS011;38339;53.234;6.578;2022-08-01T02:40:50;10.48;;;4.45;;
52412;SDS011;38339;53.234;6.578;2022-08-01T02:43:18;15.77;;;4.70;;
52412;SDS011;38339;53.234;6.578;2022-08-01T02:45:49;12.82;;;4.80;;
52412;SDS011;38339;53.234;6.578;2022-08-01T02:48:18;15.25;;;4.50;;
52412;SDS011;38339;53.234;6.578;2022-08-01T02:50:47;14.85;;;4.53;;
52412;SDS011;38339;53.234;6.578;2022-08-01T02:53:14;14.20;;;4.00;;
52412;SDS011;38339;53.234;6.578;2022-08-01T02:55:42;12.75;;;4.45;;
52412;SDS011;38339;53.234;6.578;2022-08-01T02:58:10;14.77;;;4.20;;
52412;SDS011;38339;53.234;6.578;2022-08-01T03:00:39;18.08;;;4.30;;
52412;SDS011;38339;53.234;6.578;2022-08-01T03:03:06;12.48;;;4.60;;
52412;SDS011;38339;53.234;6.578;2022-08-01T03:05:33;11.10;;;4.22;;
52412;SDS011;38339;53.234;6.578;2022-08-01T03:08:00;11.50;;;4.20;;
52412;SDS011;38339;53.234;6.578;2022-08-01T03:10:28;11.52;;;4.15;;
52412;SDS011;38339;53.234;6.578;2022-08-01T03:12:55;12.82;;;4.68;;
52412;SDS011;38339;53.234;6.578;2022-08-01T03:15:24;13.80;;;4.70;;
52412;SDS011;38339;53.234;6.578;2022-08-01T03:17:51;12.95;;;4.63;;
52412;SDS011;38339;53.234;6.578;2022-08-01T03:20:20;10.48;;;3.97;;
52412;SDS011;38339;53.234;6.578;2022-08-01T03:22:47;11.68;;;4.20;;
52412;SDS011;38339;53.234;6.578;2022-08-01T03:25:16;14.75;;;4.13;;
52412;SDS011;38339;53.234;6.578;2022-08-01T03:27:43;14.07;;;3.78;;
52412;SDS011;38339;53.234;6.578;2022-08-01T03:30:13;11.68;;;3.83;;
52412;SDS011;38339;53.234;6.578;2022-08-01T03:32:40;14.15;;;4.22;;
52412;SDS011;38339;53.234;6.578;2022-08-01T03:35:06;10.75;;;3.80;;
52412;SDS011;38339;53.234;6.578;2022-08-01T03:40:05;13.38;;;4.50;;
52412;SDS011;38339;53.234;6.578;2022-08-01T03:42:37;10.10;;;4.70;;
52412;SDS011;38339;53.234;6.578;2022-08-01T03:45:10;13.80;;;4.50;;
52412;SDS011;38339;53.234;6.578;2022-08-01T03:47:42;10.80;;;3.88;;
52412;SDS011;38339;53.234;6.578;2022-08-01T03:50:09;8.63;;;3.63;;
52412;SDS011;38339;53.234;6.578;2022-08-01T03:52:39;9.80;;;3.85;;
52412;SDS011;38339;53.234;6.578;2022-08-01T03:55:06;9.40;;;3.70;;
52412;SDS011;38339;53.234;6.578;2022-08-01T03:57:34;11.90;;;4.10;;
52412;SDS011;38339;53.234;6.578;2022-08-01T04:00:01;9.18;;;3.97;;
52412;SDS011;38339;53.234;6.578;2022-08-01T04:02:31;14.00;;;3.50;;
52412;SDS011;38339;53.234;6.578;2022-08-01T04:04:57;9.13;;;3.60;;
52412;SDS011;38339;53.234;6.578;2022-08-01T04:07:28;12.50;;;3.75;;
52412;SDS011;38339;53.234;6.578;2022-08-01T04:09:56;10.95;;;3.50;;
52412;SDS011;38339;53.234;6.578;2022-08-01T04:12:22;11.80;;;4.05;;
52412;SDS011;38339;53.234;6.578;2022-08-01T04:14:48;14.70;;;4.00;;
52412;SDS011;38339;53.234;6.578;2022-08-01T04:17:14;12.50;;;3.53;;
52412;SDS011;38339;53.234;6.578;2022-08-01T04:19:41;11.23;;;3.33;;
52412;SDS011;38339;53.234;6.578;2022-08-01T04:22:08;12.23;;;3.90;;
52412;SDS011;38339;53.234;6.578;2022-08-01T04:24:38;16.80;;;3.95;;
52412;SDS011;38339;53.234;6.578;2022-08-01T04:27:08;12.80;;;3.58;;
52412;SDS011;38339;53.234;6.578;2022-08-01T04:29:38;14.32;;;3.58;;
52412;SDS011;38339;53.234;6.578;2022-08-01T04:32:07;12.15;;;3.40;;
52412;SDS011;38339;53.234;6.578;2022-08-01T04:34:36;14.60;;;3.53;;
52412;SDS011;38339;53.234;6.578;2022-08-01T04:37:05;13.18;;;3.70;;
52412;SDS011;38339;53.234;6.578;2022-08-01T04:39:34;13.27;;;3.67;;
52412;SDS011;38339;53.234;6.578;2022-08-01T04:42:08;18.98;;;4.25;;
52412;SDS011;38339;53.234;6.578;2022-08-01T04:44:36;13.77;;;3.90;;
52412;SDS011;38339;53.234;6.578;2022-08-01T04:47:03;20.70;;;3.92;;
52412;SDS011;38339;53.234;6.578;2022-08-01T04:49:36;14.85;;;3.95;;
52412;SDS011;38339;53.234;6.578;2022-08-01T04:52:02;17.40;;;4.85;;
52412;SDS011;38339;53.234;6.578;2022-08-01T04:54:28;15.90;;;4.50;;
52412;SDS011;38339;53.234;6.578;2022-08-01T04:56:55;19.52;;;5.32;;
52412;SDS011;38339;53.234;6.578;2022-08-01T04:59:27;18.67;;;4.40;;
52412;SDS011;38339;53.234;6.578;2022-08-01T05:02:18;18.05;;;4.68;;
52412;SDS011;38339;53.234;6.578;2022-08-01T05:04:45;21.67;;;4.18;;
52412;SDS011;38339;53.234;6.578;2022-08-01T05:07:11;17.90;;;4.82;;
52412;SDS011;38339;53.234;6.578;2022-08-01T05:09:38;14.82;;;4.05;;
52412;SDS011;38339;53.234;6.578;2022-08-01T05:12:08;18.67;;;4.78;;
52412;SDS011;38339;53.234;6.578;2022-08-01T05:14:35;14.98;;;4.57;;
52412;SDS011;38339;53.234;6.578;2022-08-01T05:17:02;15.95;;;4.43;;
52412;SDS011;38339;53.234;6.578;2022-08-01T05:19:30;17.00;;;4.38;;
52412;SDS011;38339;53.234;6.578;2022-08-01T05:21:57;13.95;;;3.80;;
52412;SDS011;38339;53.234;6.578;2022-08-01T05:24:27;22.15;;;4.70;;
52412;SDS011;38339;53.234;6.578;2022-08-01T05:26:53;14.43;;;3.92;;
52412;SDS011;38339;53.234;6.578;2022-08-01T05:29:20;15.93;;;4.15;;
52412;SDS011;38339;53.234;6.578;2022-08-01T05:31:46;20.63;;;4.20;;
52412;SDS011;38339;53.234;6.578;2022-08-01T05:34:12;21.20;;;4.22;;
52412;SDS011;38339;53.234;6.578;2022-08-01T05:36:37;20.80;;;4.20;;
52412;SDS011;38339;53.234;6.578;2022-08-01T05:39:04;17.13;;;3.83;;
52412;SDS011;38339;53.234;6.578;2022-08-01T05:41:30;22.70;;;5.15;;
52412;SDS011;38339;53.234;6.578;2022-08-01T05:43:56;21.85;;;4.45;;
52412;SDS011;38339;53.234;6.578;2022-08-01T05:46:21;19.05;;;4.47;;
52412;SDS011;38339;53.234;6.578;2022-08-01T05:48:47;19.95;;;4.68;;
52412;SDS011;38339;53.234;6.578;2022-08-01T05:51:13;19.35;;;4.65;;
52412;SDS011;38339;53.234;6.578;2022-08-01T05:53:38;20.33;;;4.10;;
52412;SDS011;38339;53.234;6.578;2022-08-01T05:56:04;23.40;;;4.45;;
52412;SDS011;38339;53.234;6.578;2022-08-01T05:58:30;17.00;;;4.15;;
52412;SDS011;38339;53.234;6.578;2022-08-01T06:00:57;16.38;;;4.45;;
52412;SDS011;38339;53.234;6.578;2022-08-01T06:03:23;14.77;;;3.92;;
52412;SDS011;38339;53.234;6.578;2022-08-01T06:05:49;17.45;;;3.90;;
52412;SDS011;38339;53.234;6.578;2022-08-01T06:08:16;19.63;;;4.72;;
52412;SDS011;38339;53.234;6.578;2022-08-01T06:10:42;20.38;;;4.70;;
52412;SDS011;38339;53.234;6.578;2022-08-01T06:13:07;18.15;;;4.78;;
52412;SDS011;38339;53.234;6.578;2022-08-01T06:15:33;16.42;;;3.80;;
52412;SDS011;38339;53.234;6.578;2022-08-01T06:17:59;14.90;;;3.90;;
52412;SDS011;38339;53.234;6.578;2022-08-01T06:20:25;17.70;;;4.10;;
52412;SDS011;38339;53.234;6.578;2022-08-01T06:22:51;19.08;;;3.80;;
52412;SDS011;38339;53.234;6.578;2022-08-01T06:25:17;21.17;;;4.72;;
52412;SDS011;38339;53.234;6.578;2022-08-01T06:27:44;19.52;;;3.90;;
52412;SDS011;38339;53.234;6.578;2022-08-01T06:30:10;15.50;;;3.80;;
52412;SDS011;38339;53.234;6.578;2022-08-01T06:32:36;20.35;;;3.88;;
52412;SDS011;38339;53.234;6.578;2022-08-01T06:35:02;17.13;;;3.92;;
52412;SDS011;38339;53.234;6.578;2022-08-01T06:37:28;14.40;;;3.88;;
52412;SDS011;38339;53.234;6.578;2022-08-01T06:40:05;15.75;;;3.65;;
52412;SDS011;38339;53.234;6.578;2022-08-01T06:42:33;17.20;;;4.43;;
52412;SDS011;38339;53.234;6.578;2022-08-01T06:45:05;13.35;;;3.72;;
52412;SDS011;38339;53.234;6.578;2022-08-01T06:47:31;21.08;;;3.95;;
52412;SDS011;38339;53.234;6.578;2022-08-01T06:49:58;17.08;;;3.92;;
52412;SDS011;38339;53.234;6.578;2022-08-01T06:52:23;18.17;;;3.58;;
52412;SDS011;38339;53.234;6.578;2022-08-01T06:54:49;16.05;;;4.30;;
52412;SDS011;38339;53.234;6.578;2022-08-01T06:57:15;19.15;;;3.75;;
52412;SDS011;38339;53.234;6.578;2022-08-01T06:59:41;21.25;;;4.30;;
52412;SDS011;38339;53.234;6.578;2022-08-01T07:02:07;18.15;;;3.85;;
52412;SDS011;38339;53.234;6.578;2022-08-01T07:04:33;18.25;;;3.50;;
52412;SDS011;38339;53.234;6.578;2022-08-01T07:06:59;15.05;;;3.70;;
52412;SDS011;38339;53.234;6.578;2022-08-01T07:09:25;17.90;;;4.07;;
52412;SDS011;38339;53.234;6.578;2022-08-01T07:11:51;16.67;;;3.67;;
52412;SDS011;38339;53.234;6.578;2022-08-01T07:14:18;17.52;;;3.70;;
52412;SDS011;38339;53.234;6.578;2022-08-01T07:16:44;19.10;;;6.18;;
52412;SDS011;38339;53.234;6.578;2022-08-01T07:19:10;17.95;;;4.25;;
52412;SDS011;38339;53.234;6.578;2022-08-01T07:21:37;16.45;;;3.85;;
52412;SDS011;38339;53.234;6.578;2022-08-01T07:24:03;10.38;;;2.80;;
52412;SDS011;38339;53.234;6.578;2022-08-01T07:26:30;15.77;;;3.67;;
52412;SDS011;38339;53.234;6.578;2022-08-01T07:28:55;20.85;;;3.45;;
52412;SDS011;38339;53.234;6.578;2022-08-01T07:31:21;13.77;;;3.53;;
52412;SDS011;38339;53.234;6.578;2022-08-01T07:33:48;14.05;;;3.30;;
52412;SDS011;38339;53.234;6.578;2022-08-01T07:36:14;16.20;;;3.15;;
52412;SDS011;38339;53.234;6.578;2022-08-01T07:38:40;9.93;;;3.10;;
52412;SDS011;38339;53.234;6.578;2022-08-01T07:41:06;13.93;;;3.55;;
52412;SDS011;38339;53.234;6.578;2022-08-01T07:43:32;15.40;;;3.60;;
52412;SDS011;38339;53.234;6.578;2022-08-01T07:45:57;13.70;;;3.30;;
52412;SDS011;38339;53.234;6.578;2022-08-01T07:48:23;12.30;;;3.70;;
52412;SDS011;38339;53.234;6.578;2022-08-01T07:50:50;12.05;;;3.25;;
52412;SDS011;38339;53.234;6.578;2022-08-01T07:53:16;9.35;;;2.83;;
52412;SDS011;38339;53.234;6.578;2022-08-01T07:55:42;8.77;;;3.13;;
52412;SDS011;38339;53.234;6.578;2022-08-01T07:58:08;15.02;;;3.42;;
52412;SDS011;38339;53.234;6.578;2022-08-01T08:00:33;17.33;;;4.40;;
52412;SDS011;38339;53.234;6.578;2022-08-01T08:02:59;16.42;;;3.63;;
52412;SDS011;38339;53.234;6.578;2022-08-01T08:05:28;16.23;;;2.90;;
52412;SDS011;38339;53.234;6.578;2022-08-01T08:07:54;11.25;;;2.78;;
52412;SDS011;38339;53.234;6.578;2022-08-01T08:10:20;15.00;;;2.92;;
52412;SDS011;38339;53.234;6.578;2022-08-01T08:12:46;9.80;;;2.80;;
52412;SDS011;38339;53.234;6.578;2022-08-01T08:15:12;16.40;;;3.05;;
52412;SDS011;38339;53.234;6.578;2022-08-01T08:17:38;16.17;;;2.75;;
52412;SDS011;38339;53.234;6.578;2022-08-01T08:20:07;9.68;;;2.63;;
52412;SDS011;38339;53.234;6.578;2022-08-01T08:22:34;14.25;;;3.20;;
52412;SDS011;38339;53.234;6.578;2022-08-01T08:25:00;19.05;;;4.75;;
52412;SDS011;38339;53.234;6.578;2022-08-01T08:27:25;13.00;;;2.88;;
52412;SDS011;38339;53.234;6.578;2022-08-01T08:29:51;13.95;;;2.53;;
52412;SDS011;38339;53.234;6.578;2022-08-01T08:32:17;10.30;;;2.72;;
52412;SDS011;38339;53.234;6.578;2022-08-01T08:34:42;12.90;;;2.70;;
52412;SDS011;38339;53.234;6.578;2022-08-01T08:37:08;15.80;;;3.05;;
52412;SDS011;38339;53.234;6.578;2022-08-01T08:39:34;10.32;;;2.72;;
52412;SDS011;38339;53.234;6.578;2022-08-01T08:42:00;13.48;;;2.95;;
52412;SDS011;38339;53.234;6.578;2022-08-01T08:44:27;10.68;;;2.80;;
52412;SDS011;38339;53.234;6.578;2022-08-01T08:46:53;9.95;;;2.88;;
52412;SDS011;38339;53.234;6.578;2022-08-01T08:49:22;9.63;;;2.17;;
52412;SDS011;38339;53.234;6.578;2022-08-01T08:51:50;15.43;;;2.60;;
52412;SDS011;38339;53.234;6.578;2022-08-01T08:54:17;12.48;;;3.33;;
52412;SDS011;38339;53.234;6.578;2022-08-01T08:56:45;6.82;;;2.40;;
52412;SDS011;38339;53.234;6.578;2022-08-01T08:59:12;13.27;;;2.85;;
52412;SDS011;38339;53.234;6.578;2022-08-01T09:01:38;15.23;;;2.85;;
52412;SDS011;38339;53.234;6.578;2022-08-01T09:04:05;11.82;;;2.85;;
52412;SDS011;38339;53.234;6.578;2022-08-01T09:06:31;11.43;;;2.58;;
52412;SDS011;38339;53.234;6.578;2022-08-01T09:08:58;14.95;;;2.92;;
52412;SDS011;38339;53.234;6.578;2022-08-01T09:11:25;15.07;;;3.05;;
52412;SDS011;38339;53.234;6.578;2022-08-01T09:14:13;12.43;;;2.67;;
52412;SDS011;38339;53.234;6.578;2022-08-01T09:16:47;9.55;;;2.53;;
52412;SDS011;38339;53.234;6.578;2022-08-01T09:19:23;8.30;;;2.33;;
52412;SDS011;38339;53.234;6.578;2022-08-01T09:22:00;12.48;;;3.00;;
52412;SDS011;38339;53.234;6.578;2022-08-01T09:24:28;12.05;;;2.30;;
52412;SDS011;38339;53.234;6.578;2022-08-01T09:26:55;10.10;;;2.45;;
52412;SDS011;38339;53.234;6.578;2022-08-01T09:29:22;12.40;;;2.50;;
52412;SDS011;38339;53.234;6.578;2022-08-01T09:31:49;8.15;;;2.13;;
52412;SDS011;38339;53.234;6.578;2022-08-01T09:34:16;10.48;;;2.38;;
52412;SDS011;38339;53.234;6.578;2022-08-01T09:36:57;9.68;;;2.22;;
52412;SDS011;38339;53.234;6.578;2022-08-01T09:39:25;8.85;;;2.17;;
52412;SDS011;38339;53.234;6.578;2022-08-01T09:41:53;13.65;;;2.80;;
52412;SDS011;38339;53.234;6.578;2022-08-01T09:44:36;10.65;;;2.30;;
52412;SDS011;38339;53.234;6.578;2022-08-01T09:47:02;12.43;;;2.90;;
52412;SDS011;38339;53.234;6.578;2022-08-01T09:49:28;13.55;;;5.22;;
52412;SDS011;38339;53.234;6.578;2022-08-01T09:52:18;10.20;;;2.80;;
52412;SDS011;38339;53.234;6.578;2022-08-01T09:54:57;16.00;;;2.65;;
52412;SDS011;38339;53.234;6.578;2022-08-01T09:57:24;6.93;;;2.28;;
52412;SDS011;38339;53.234;6.578;2022-08-01T09:59:52;7.25;;;2.63;;
52412;SDS011;38339;53.234;6.578;2022-08-01T10:02:36;12.30;;;2.20;;
52412;SDS011;38339;53.234;6.578;2022-08-01T10:05:08;8.85;;;2.40;;
52412;SDS011;38339;53.234;6.578;2022-08-01T10:07:36;9.07;;;2.53;;
52412;SDS011;38339;53.234;6.578;2022-08-01T10:10:22;8.50;;;2.00;;
52412;SDS011;38339;53.234;6.578;2022-08-01T10:12:47;9.73;;;2.90;;
52412;SDS011;38339;53.234;6.578;2022-08-01T10:15:16;9.25;;;2.20;;
52412;SDS011;38339;53.234;6.578;2022-08-01T10:17:46;9.40;;;2.38;;
52412;SDS011;38339;53.234;6.578;2022-08-01T10:20:19;10.70;;;2.00;;
52412;SDS011;38339;53.234;6.578;2022-08-01T10:22:47;7.35;;;2.10;;
52412;SDS011;38339;53.234;6.578;2022-08-01T10:25:15;9.52;;;2.58;;
52412;SDS011;38339;53.234;6.578;2022-08-01T10:27:44;11.10;;;3.55;;
52412;SDS011;38339;53.234;6.578;2022-08-01T10:30:17;16.75;;;2.88;;
52412;SDS011;38339;53.234;6.578;2022-08-01T10:32:42;12.38;;;2.72;;
52412;SDS011;38339;53.234;6.578;2022-08-01T10:35:12;13.73;;;2.47;;
52412;SDS011;38339;53.234;6.578;2022-08-01T10:37:42;10.38;;;2.15;;
52412;SDS011;38339;53.234;6.578;2022-08-01T10:40:11;7.72;;;1.95;;
52412;SDS011;38339;53.234;6.578;2022-08-01T10:42:38;8.70;;;2.13;;
52412;SDS011;38339;53.234;6.578;2022-08-01T10:45:12;9.20;;;2.00;;
52412;SDS011;38339;53.234;6.578;2022-08-01T10:47:53;7.28;;;1.90;;
52412;SDS011;38339;53.234;6.578;2022-08-01T10:50:32;8.90;;;2.13;;
52412;SDS011;38339;53.234;6.578;2022-08-01T10:53:03;11.40;;;2.10;;
52412;SDS011;38339;53.234;6.578;2022-08-01T10:55:52;10.40;;;2.20;;
52412;SDS011;38339;53.234;6.578;2022-08-01T10:58:32;6.57;;;1.90;;
52412;SDS011;38339;53.234;6.578;2022-08-01T11:08:58;9.88;;;3.22;;
52412;SDS011;38339;53.234;6.578;2022-08-01T11:17:39;6.53;;;1.73;;
52412;SDS011;38339;53.234;6.578;2022-08-01T11:20:19;8.23;;;1.90;;
52412;SDS011;38339;53.234;6.578;2022-08-01T11:28:25;8.77;;;2.55;;
52412;SDS011;38339;53.234;6.578;2022-08-01T11:30:54;8.05;;;1.90;;
52412;SDS011;38339;53.234;6.578;2022-08-01T11:38:42;7.20;;;2.45;;
52412;SDS011;38339;53.234;6.578;2022-08-01T11:41:13;6.53;;;1.77;;
52412;SDS011;38339;53.234;6.578;2022-08-01T11:43:54;5.20;;;2.00;;
52412;SDS011;38339;53.234;6.578;2022-08-01T11:52:04;7.90;;;1.92;;
52412;SDS011;38339;53.234;6.578;2022-08-01T11:54:44;17.42;;;5.10;;
52412;SDS011;38339;53.234;6.578;2022-08-01T11:57:14;5.40;;;1.80;;
52412;SDS011;38339;53.234;6.578;2022-08-01T11:59:45;7.03;;;1.50;;
52412;SDS011;38339;53.234;6.578;2022-08-01T12:02:35;6.97;;;1.63;;
52412;SDS011;38339;53.234;6.578;2022-08-01T12:05:00;9.35;;;1.80;;
52412;SDS011;38339;53.234;6.578;2022-08-01T12:07:29;4.90;;;1.70;;
52412;SDS011;38339;53.234;6.578;2022-08-01T12:10:02;13.40;;;2.20;;
52412;SDS011;38339;53.234;6.578;2022-08-01T12:12:29;5.78;;;1.40;;
52412;SDS011;38339;53.234;6.578;2022-08-01T12:15:00;8.20;;;1.88;;
52412;SDS011;38339;53.234;6.578;2022-08-01T12:17:38;7.10;;;2.80;;
52412;SDS011;38339;53.234;6.578;2022-08-01T12:20:04;7.57;;;1.90;;
52412;SDS011;38339;53.234;6.578;2022-08-01T12:22:32;5.28;;;1.85;;
52412;SDS011;38339;53.234;6.578;2022-08-01T12:25:05;7.20;;;1.60;;
52412;SDS011;38339;53.234;6.578;2022-08-01T12:27:42;10.20;;;1.83;;
52412;SDS011;38339;53.234;6.578;2022-08-01T12:30:10;10.02;;;2.10;;
52412;SDS011;38339;53.234;6.578;2022-08-01T12:32:41;8.38;;;2.10;;
52412;SDS011;38339;53.234;6.578;2022-08-01T12:35:10;10.38;;;2.55;;
52412;SDS011;38339;53.234;6.578;2022-08-01T12:37:39;7.25;;;1.90;;
52412;SDS011;38339;53.234;6.578;2022-08-01T12:42:44;8.00;;;2.10;;
52412;SDS011;38339;53.234;6.578;2022-08-01T12:45:30;7.90;;;1.80;;
52412;SDS011;38339;53.234;6.578;2022-08-01T12:47:58;10.73;;;2.72;;
52412;SDS011;38339;53.234;6.578;2022-08-01T12:50:29;6.22;;;1.60;;
52412;SDS011;38339;53.234;6.578;2022-08-01T12:52:57;7.22;;;2.00;;
52412;SDS011;38339;53.234;6.578;2022-08-01T12:55:24;8.45;;;1.55;;
52412;SDS011;38339;53.234;6.578;2022-08-01T12:58:12;7.72;;;1.75;;
52412;SDS011;38339;53.234;6.578;2022-08-01T13:00:39;7.13;;;2.00;;
52412;SDS011;38339;53.234;6.578;2022-08-01T13:03:09;8.23;;;2.17;;
52412;SDS011;38339;53.234;6.578;2022-08-01T13:08:10;8.40;;;2.03;;
52412;SDS011;38339;53.234;6.578;2022-08-01T13:10:46;7.55;;;2.03;;
52412;SDS011;38339;53.234;6.578;2022-08-01T13:13:15;9.00;;;1.90;;
52412;SDS011;38339;53.234;6.578;2022-08-01T13:15:42;6.18;;;1.65;;
52412;SDS011;38339;53.234;6.578;2022-08-01T13:18:26;8.45;;;2.38;;
52412;SDS011;38339;53.234;6.578;2022-08-01T13:23:40;7.20;;;2.05;;
52412;SDS011;38339;53.234;6.578;2022-08-01T13:26:07;6.78;;;1.67;;
52412;SDS011;38339;53.234;6.578;2022-08-01T13:28:33;8.02;;;1.88;;
52412;SDS011;38339;53.234;6.578;2022-08-01T13:31:08;7.80;;;1.90;;
52412;SDS011;38339;53.234;6.578;2022-08-01T13:33:44;4.90;;;1.83;;
52412;SDS011;38339;53.234;6.578;2022-08-01T13:36:11;7.00;;;2.40;;
52412;SDS011;38339;53.234;6.578;2022-08-01T13:38:38;8.57;;;2.25;;
52412;SDS011;38339;53.234;6.578;2022-08-01T13:41:22;7.05;;;1.92;;
52412;SDS011;38339;53.234;6.578;2022-08-01T13:43:48;7.85;;;2.22;;
52412;SDS011;38339;53.234;6.578;2022-08-01T13:46:14;7.05;;;1.83;;
52412;SDS011;38339;53.234;6.578;2022-08-01T13:48:41;12.35;;;2.30;;
52412;SDS011;38339;53.234;6.578;2022-08-01T13:51:07;7.50;;;1.90;;
52412;SDS011;38339;53.234;6.578;2022-08-01T13:53:33;5.22;;;1.60;;
52412;SDS011;38339;53.234;6.578;2022-08-01T13:55:58;5.90;;;1.45;;
52412;SDS011;38339;53.234;6.578;2022-08-01T13:58:24;6.55;;;1.70;;
52412;SDS011;38339;53.234;6.578;2022-08-01T14:00:50;6.57;;;1.63;;
52412;SDS011;38339;53.234;6.578;2022-08-01T14:03:16;9.07;;;2.00;;
52412;SDS011;38339;53.234;6.578;2022-08-01T14:05:42;8.65;;;2.22;;
52412;SDS011;38339;53.234;6.578;2022-08-01T14:08:09;6.97;;;2.10;;
52412;SDS011;38339;53.234;6.578;2022-08-01T14:10:35;6.80;;;2.05;;
52412;SDS011;38339;53.234;6.578;2022-08-01T14:13:00;8.35;;;2.05;;
52412;SDS011;38339;53.234;6.578;2022-08-01T14:15:26;7.47;;;1.90;;
52412;SDS011;38339;53.234;6.578;2022-08-01T14:17:52;7.95;;;2.00;;
52412;SDS011;38339;53.234;6.578;2022-08-01T14:20:17;5.80;;;1.60;;
52412;SDS011;38339;53.234;6.578;2022-08-01T14:22:47;7.30;;;1.88;;
52412;SDS011;38339;53.234;6.578;2022-08-01T14:25:14;7.55;;;1.73;;
52412;SDS011;38339;53.234;6.578;2022-08-01T14:27:39;7.07;;;1.83;;
52412;SDS011;38339;53.234;6.578;2022-08-01T14:30:07;8.65;;;2.22;;
52412;SDS011;38339;53.234;6.578;2022-08-01T14:32:34;11.98;;;2.25;;
52412;SDS011;38339;53.234;6.578;2022-08-01T14:35:00;7.60;;;2.22;;
52412;SDS011;38339;53.234;6.578;2022-08-01T14:37:27;9.18;;;2.20;;
52412;SDS011;38339;53.234;6.578;2022-08-01T14:39:54;8.50;;;2.35;;
52412;SDS011;38339;53.234;6.578;2022-08-01T14:42:23;10.10;;;1.85;;
52412;SDS011;38339;53.234;6.578;2022-08-01T14:44:49;7.80;;;1.95;;
52412;SDS011;38339;53.234;6.578;2022-08-01T14:47:15;6.80;;;2.20;;
52412;SDS011;38339;53.234;6.578;2022-08-01T14:49:40;5.00;;;1.88;;
52412;SDS011;38339;53.234;6.578;2022-08-01T14:52:06;10.65;;;2.45;;
52412;SDS011;38339;53.234;6.578;2022-08-01T14:54:32;5.72;;;1.80;;
52412;SDS011;38339;53.234;6.578;2022-08-01T14:56:58;6.72;;;2.28;;
52412;SDS011;38339;53.234;6.578;2022-08-01T14:59:24;6.90;;;1.90;;
52412;SDS011;38339;53.234;6.578;2022-08-01T15:01:49;7.43;;;1.95;;
52412;SDS011;38339;53.234;6.578;2022-08-01T15:04:15;7.95;;;2.05;;
52412;SDS011;38339;53.234;6.578;2022-08-01T15:06:42;5.35;;;1.80;;
52412;SDS011;38339;53.234;6.578;2022-08-01T15:09:09;6.82;;;2.10;;
52412;SDS011;38339;53.234;6.578;2022-08-01T15:11:35;8.48;;;2.25;;
52412;SDS011;38339;53.234;6.578;2022-08-01T15:14:01;9.93;;;1.98;;
52412;SDS011;38339;53.234;6.578;2022-08-01T15:16:46;8.38;;;2.13;;
52412;SDS011;38339;53.234;6.578;2022-08-01T15:19:12;8.77;;;2.20;;
52412;SDS011;38339;53.234;6.578;2022-08-01T15:21:38;9.25;;;2.65;;
52412;SDS011;38339;53.234;6.578;2022-08-01T15:24:04;10.63;;;2.72;;
52412;SDS011;38339;53.234;6.578;2022-08-01T15:26:30;9.30;;;2.10;;
52412;SDS011;38339;53.234;6.578;2022-08-01T15:28:59;7.32;;;2.10;;
52412;SDS011;38339;53.234;6.578;2022-08-01T15:31:24;6.70;;;2.30;;
52412;SDS011;38339;53.234;6.578;2022-08-01T15:33:50;8.05;;;1.90;;
52412;SDS011;38339;53.234;6.578;2022-08-01T15:36:16;9.15;;;2.03;;
52412;SDS011;38339;53.234;6.578;2022-08-01T15:38:42;5.63;;;1.75;;
52412;SDS011;38339;53.234;6.578;2022-08-01T15:41:07;5.95;;;1.70;;
52412;SDS011;38339;53.234;6.578;2022-08-01T15:43:33;7.22;;;1.70;;